Time;durP1;ratioP1;P1;durP2;ratioP2;P2;SDS_P1;SDS_P2;PMS_P1;PMS_P2;Temp;Humidity;BMP_temperature;BMP_pressure;BME280_temperature;BME280_humidity;BME280_pressure;Samples;Min_cycle;Max_cycle;Signal;HPM_P1;HPM_P2
2022/09/12 00:01:59;;;;;;;6.70;3.90;;;14.50;99.90;;;;;;6295682;22;20018;-91
2022/09/12 00:04:27;;;;;;;7.72;4.40;;;14.40;99.90;;;;;;6264934;22;20018;-92
2022/09/12 00:06:52;;;;;;;5.47;3.30;;;14.50;99.90;;;;;;6289276;22;20507;-96
2022/09/12 00:09:18;;;;;;;6.85;3.95;;;14.50;99.90;;;;;;6262123;22;20049;-96
2022/09/12 00:11:45;;;;;;;5.95;3.42;;;14.50;99.90;;;;;;6262308;22;20022;-92
2022/09/12 00:14:14;;;;;;;6.45;3.63;;;14.50;99.90;;;;;;6287379;22;20461;-89
2022/09/12 00:16:42;;;;;;;6.28;3.65;;;14.50;99.90;;;;;;6287658;22;20444;-91
2022/09/12 00:19:10;;;;;;;5.80;3.40;;;14.60;99.90;;;;;;6287708;22;20079;-92
2022/09/12 00:21:38;;;;;;;6.10;3.63;;;14.50;99.90;;;;;;6287909;22;20069;-91
2022/09/12 00:24:05;;;;;;;6.03;3.50;;;14.50;99.90;;;;;;6287819;22;20033;-94
2022/09/12 00:26:31;;;;;;;6.28;3.88;;;14.60;99.90;;;;;;6239351;22;20024;-94
2022/09/12 00:28:57;;;;;;;6.20;3.80;;;14.50;99.90;;;;;;6156679;23;20025;-94
2022/09/12 00:31:25;;;;;;;8.18;3.78;;;14.50;99.90;;;;;;6156510;23;20020;-90
2022/09/12 00:33:53;;;;;;;8.07;3.63;;;14.40;99.90;;;;;;6156582;23;20025;-93
2022/09/12 00:36:21;;;;;;;6.53;3.70;;;14.40;99.90;;;;;;6156736;23;20070;-96
2022/09/12 00:38:48;;;;;;;6.40;3.80;;;14.30;99.90;;;;;;6156406;23;20468;-93
2022/09/12 00:41:16;;;;;;;6.60;3.75;;;14.30;99.90;;;;;;6156607;23;20049;-95
2022/09/12 00:43:45;;;;;;;6.00;3.75;;;14.30;99.90;;;;;;6157069;23;20323;-94
2022/09/12 00:46:33;;;;;;;7.47;3.63;;;14.20;99.90;;;;;;6156879;23;20342;-95
2022/09/12 00:49:13;;;;;;;7.10;3.97;;;14.20;99.90;;;;;;6156616;23;20021;-95
2022/09/12 00:51:43;;;;;;;6.30;3.67;;;14.20;99.90;;;;;;6156756;23;20111;-93
2022/09/12 00:54:29;;;;;;;8.82;4.30;;;14.20;99.90;;;;;;6157825;23;20094;-94
2022/09/12 00:57:00;;;;;;;6.85;3.67;;;14.20;99.90;;;;;;6156917;23;20017;-95
2022/09/12 00:59:49;;;;;;;7.25;4.28;;;14.30;99.90;;;;;;6156610;23;20052;-93
2022/09/12 01:02:15;;;;;;;6.88;3.85;;;14.20;99.90;;;;;;6156482;23;20438;-93
2022/09/12 01:04:46;;;;;;;;;;;14.20;99.90;;;;;;6156463;23;20013;-93
2022/09/12 01:07:14;;;;;;;6.97;4.15;;;14.20;99.90;;;;;;6156531;22;19948;-92
2022/09/12 01:09:41;;;;;;;6.40;3.65;;;14.20;99.90;;;;;;6180829;23;20225;-94
2022/09/12 01:12:08;;;;;;;6.68;3.85;;;14.20;99.90;;;;;;6156972;23;20014;-91
2022/09/12 01:15:23;;;;;;;5.55;3.45;;;14.20;99.90;;;;;;6156411;23;20021;-94
2022/09/12 01:21:22;;;;;;;6.50;3.80;;;14.10;99.90;;;;;;6181551;22;20107;-87
2022/09/12 01:24:00;;;;;;;5.90;3.67;;;14.10;99.90;;;;;;6157085;23;20024;-94
2022/09/12 01:26:55;;;;;;;6.53;3.70;;;14.00;99.90;;;;;;6156342;23;20017;-89
2022/09/12 01:30:01;;;;;;;7.03;4.25;;;14.00;99.90;;;;;;6184086;23;20017;-94
2022/09/12 01:32:51;;;;;;;7.65;3.42;;;14.00;99.90;;;;;;6156964;23;20068;-95
2022/09/12 01:36:02;;;;;;;5.70;3.22;;;13.90;99.90;;;;;;6156487;23;20017;-95
2022/09/12 01:38:58;;;;;;;7.20;3.92;;;13.90;99.90;;;;;;6164338;23;20070;-93
2022/09/12 01:41:45;;;;;;;6.40;3.78;;;13.80;99.90;;;;;;6156805;23;20025;-96
2022/09/12 01:44:36;;;;;;;7.65;4.35;;;13.80;99.90;;;;;;6156219;23;20100;-90
2022/09/12 01:47:07;;;;;;;5.93;3.42;;;13.80;99.90;;;;;;6156349;23;20017;-95
2022/09/12 01:49:58;;;;;;;7.13;3.92;;;13.80;99.90;;;;;;6156157;23;20021;-95
2022/09/12 01:52:36;;;;;;;7.43;4.10;;;13.80;99.90;;;;;;6182130;23;20438;-96
2022/09/12 01:55:21;;;;;;;7.70;4.28;;;13.80;99.90;;;;;;6156597;23;20013;-95
2022/09/12 01:58:07;;;;;;;6.22;3.65;;;13.70;99.90;;;;;;6156368;23;20043;-95
2022/09/12 02:00:37;;;;;;;6.43;3.97;;;13.70;99.90;;;;;;6157653;23;20021;-95
2022/09/12 02:03:32;;;;;;;7.40;4.05;;;13.60;99.90;;;;;;6156978;23;20047;-89
2022/09/12 02:06:17;;;;;;;6.97;3.95;;;13.60;99.90;;;;;;6162382;23;20454;-95
2022/09/12 02:09:09;;;;;;;6.35;4.00;;;13.60;99.90;;;;;;6158859;23;20021;-95
2022/09/12 02:11:40;;;;;;;6.43;3.95;;;13.60;99.90;;;;;;6181512;23;20013;-93
2022/09/12 02:14:10;;;;;;;7.30;3.97;;;13.60;99.90;;;;;;6156308;23;20024;-94
2022/09/12 02:16:41;;;;;;;6.90;3.70;;;13.60;99.90;;;;;;6155680;23;20013;-94
2022/09/12 02:19:14;;;;;;;6.85;3.92;;;13.60;99.90;;;;;;6156400;23;20070;-93
2022/09/12 02:21:48;;;;;;;6.75;3.90;;;13.60;99.90;;;;;;6155780;23;20048;-93
2022/09/12 02:24:14;;;;;;;6.55;3.83;;;13.70;99.90;;;;;;6156224;23;20096;-95
2022/09/12 02:26:43;;;;;;;;;;;13.70;99.90;;;;;;6180856;23;20017;-92
2022/09/12 02:29:08;;;;;;;7.72;4.10;;;13.70;99.90;;;;;;6155901;23;19966;-93
2022/09/12 02:32:00;;;;;;;7.90;4.05;;;13.60;99.90;;;;;;6131419;23;20017;-91
2022/09/12 02:34:58;;;;;;;7.07;3.70;;;13.60;99.90;;;;;;6155878;23;20017;-92
2022/09/12 02:38:13;;;;;;;7.35;3.90;;;13.60;99.90;;;;;;6181107;23;20021;-95
2022/09/12 02:40:58;;;;;;;8.43;4.50;;;13.50;99.90;;;;;;6156486;23;20077;-89
2022/09/12 02:43:25;;;;;;;7.25;4.55;;;13.50;99.90;;;;;;6158613;23;20088;-94
2022/09/12 02:45:50;;;;;;;7.25;4.00;;;13.50;99.90;;;;;;6160654;23;20032;-95
2022/09/12 02:48:25;;;;;;;8.68;4.10;;;13.50;99.90;;;;;;6158038;23;20013;-94
2022/09/12 02:50:52;;;;;;;7.22;4.07;;;13.50;99.90;;;;;;6157887;23;20100;-94
2022/09/12 02:53:19;;;;;;;6.70;4.05;;;13.50;99.90;;;;;;6166191;23;20438;-90
2022/09/12 02:55:45;;;;;;;7.72;4.10;;;13.40;99.90;;;;;;6157385;23;20043;-94
2022/09/12 02:58:45;;;;;;;7.00;4.20;;;13.50;99.90;;;;;;6155781;23;20021;-93
2022/09/12 03:01:58;;;;;;;7.38;4.18;;;13.50;99.90;;;;;;6156958;23;20055;-91
2022/09/12 03:04:52;;;;;;;8.60;4.53;;;13.50;99.90;;;;;;6163758;23;20069;-86
2022/09/12 03:07:33;;;;;;;7.82;4.93;;;13.50;99.90;;;;;;6160996;23;20096;-93
2022/09/12 03:10:24;;;;;;;8.77;5.35;;;13.50;99.90;;;;;;6157205;23;20103;-91
2022/09/12 03:13:29;;;;;;;9.68;5.88;;;13.50;99.90;;;;;;6156097;23;20096;-90
2022/09/12 03:16:38;;;;;;;9.05;5.45;;;13.40;99.90;;;;;;6155549;23;20092;-89
2022/09/12 03:19:24;;;;;;;9.40;5.18;;;13.30;99.90;;;;;;6155916;23;20434;-90
2022/09/12 03:21:52;;;;;;;9.05;5.03;;;13.30;99.90;;;;;;6157843;23;20017;-94
2022/09/12 03:24:38;;;;;;;10.07;5.60;;;13.20;99.90;;;;;;6158475;23;20014;-94
2022/09/12 03:27:40;;;;;;;8.98;5.45;;;13.20;99.90;;;;;;6158076;23;20099;-95
2022/09/12 03:30:07;;;;;;;8.80;5.35;;;13.20;99.90;;;;;;6191157;23;20018;-89
2022/09/12 03:32:59;;;;;;;9.27;5.38;;;13.20;99.90;;;;;;6156792;23;20017;-92
2022/09/12 03:35:25;;;;;;;10.75;5.97;;;13.20;99.90;;;;;;6181308;23;20066;-93
2022/09/12 03:37:51;;;;;;;9.82;5.72;;;13.20;99.90;;;;;;6156417;23;20396;-94
2022/09/12 03:40:18;;;;;;;9.70;5.55;;;13.20;99.90;;;;;;6156579;23;20019;-94
2022/09/12 03:42:44;;;;;;;8.77;5.43;;;13.20;99.90;;;;;;6157964;23;20020;-94
2022/09/12 03:45:10;;;;;;;10.23;5.80;;;13.20;99.90;;;;;;6159024;23;20053;-88
2022/09/12 03:47:36;;;;;;;8.88;5.60;;;13.30;99.90;;;;;;6165304;23;20017;-94
2022/09/12 03:50:03;;;;;;;9.85;5.50;;;13.30;99.90;;;;;;6166880;23;20096;-92
2022/09/12 03:52:29;;;;;;;8.13;5.05;;;13.30;99.90;;;;;;6164993;23;20481;-94
2022/09/12 03:54:55;;;;;;;10.60;5.63;;;13.30;99.90;;;;;;6167367;23;20020;-91
2022/09/12 03:57:20;;;;;;;11.97;6.13;;;13.30;99.90;;;;;;6157990;23;20272;-93
2022/09/12 03:59:48;;;;;;;11.13;6.23;;;13.30;99.90;;;;;;6182609;23;20405;-86
2022/09/12 04:02:14;;;;;;;11.00;5.68;;;13.30;99.90;;;;;;6183895;23;20024;-95
2022/09/12 04:04:43;;;;;;;10.25;5.75;;;13.30;99.90;;;;;;6185745;23;20013;-92
2022/09/12 04:07:10;;;;;;;9.02;5.57;;;13.30;99.90;;;;;;6161382;23;20024;-95
2022/09/12 04:09:35;;;;;;;8.90;5.00;;;13.20;99.90;;;;;;6159642;23;20344;-95
2022/09/12 04:12:02;;;;;;;9.88;5.65;;;13.30;99.90;;;;;;6133721;23;20021;-88
2022/09/12 04:14:28;;;;;;;9.27;5.15;;;13.20;99.90;;;;;;6183114;23;20024;-96
2022/09/12 04:16:54;;;;;;;9.33;5.47;;;13.20;99.90;;;;;;6184007;23;20069;-95
2022/09/12 04:19:19;;;;;;;9.50;5.73;;;13.20;99.90;;;;;;6166206;23;20317;-88
2022/09/12 04:21:45;;;;;;;11.53;6.50;;;13.20;99.90;;;;;;6163919;23;20240;-91
2022/09/12 04:24:11;;;;;;;10.32;6.15;;;13.10;99.90;;;;;;6162536;23;20017;-96
2022/09/12 04:26:37;;;;;;;9.25;5.80;;;13.20;99.90;;;;;;6156756;23;20021;-88
2022/09/12 04:29:03;;;;;;;10.10;6.05;;;13.20;99.90;;;;;;6156978;23;20028;-93
2022/09/12 04:31:28;;;;;;;10.55;6.85;;;13.20;99.90;;;;;;6156922;23;20017;-91
2022/09/12 04:33:59;;;;;;;10.90;5.80;;;13.20;99.90;;;;;;6156954;23;20410;-95
2022/09/12 04:36:26;;;;;;;9.13;5.63;;;13.20;99.90;;;;;;6157277;23;20079;-95
2022/09/12 04:38:52;;;;;;;9.90;5.47;;;13.20;99.90;;;;;;6157378;23;20021;-92
2022/09/12 04:41:20;;;;;;;;;;;13.20;99.90;;;;;;6157807;23;20091;-95
2022/09/12 04:43:47;;;;;;;9.02;5.65;;;13.20;99.90;;;;;;6156969;22;19978;-92
2022/09/12 04:46:18;;;;;;;9.30;5.70;;;13.20;99.90;;;;;;6157586;23;20021;-95
2022/09/12 04:48:44;;;;;;;9.35;5.45;;;13.20;99.90;;;;;;6181253;23;20465;-96
2022/09/12 04:51:12;;;;;;;9.55;5.88;;;13.10;99.90;;;;;;6157637;23;20017;-92
2022/09/12 04:53:38;;;;;;;9.48;6.22;;;13.20;99.90;;;;;;6158140;23;20111;-90
2022/09/12 04:56:06;;;;;;;10.43;6.57;;;13.10;99.90;;;;;;6181415;23;20021;-96
2022/09/12 04:58:33;;;;;;;10.23;6.28;;;13.20;99.90;;;;;;6181408;23;20449;-94
2022/09/12 05:01:11;;;;;;;11.00;5.95;;;13.20;99.90;;;;;;6156726;23;20013;-96
2022/09/12 05:03:42;;;;;;;10.02;6.05;;;13.20;99.90;;;;;;6157866;23;20016;-94
2022/09/12 05:06:20;;;;;;;10.32;6.40;;;13.20;99.90;;;;;;6182002;22;20017;-95
2022/09/12 05:08:46;;;;;;;10.77;6.50;;;13.20;99.90;;;;;;6155591;23;20017;-86
2022/09/12 05:11:14;;;;;;;11.73;6.68;;;13.30;99.90;;;;;;6157290;23;20024;-85
2022/09/12 05:13:40;;;;;;;10.75;6.00;;;13.30;99.90;;;;;;6158181;23;20025;-94
2022/09/12 05:16:08;;;;;;;11.55;6.20;;;13.40;99.90;;;;;;6158316;23;20025;-93
2022/09/12 05:18:35;;;;;;;11.85;6.80;;;13.40;99.90;;;;;;6183594;23;20070;-96
2022/09/12 05:21:03;;;;;;;12.45;6.88;;;13.50;99.90;;;;;;6159772;23;20343;-91
2022/09/12 05:23:29;;;;;;;11.00;6.70;;;13.50;99.90;;;;;;6164996;23;20319;-95
2022/09/12 05:25:57;;;;;;;10.10;6.38;;;13.60;99.90;;;;;;6187588;23;20017;-90
2022/09/12 05:28:25;;;;;;;11.55;6.22;;;13.60;99.90;;;;;;6186073;23;20353;-91
2022/09/12 05:31:05;;;;;;;11.15;6.43;;;13.60;99.90;;;;;;6164051;23;20020;-89
2022/09/12 05:33:34;;;;;;;11.63;6.63;;;13.70;99.90;;;;;;6197799;22;20017;-91
2022/09/12 05:36:01;;;;;;;13.27;6.38;;;13.70;99.90;;;;;;6167878;23;20024;-94
2022/09/12 05:38:28;;;;;;;11.45;6.38;;;13.80;99.90;;;;;;6163258;23;20116;-94
2022/09/12 05:41:09;;;;;;;10.05;5.97;;;13.80;99.90;;;;;;6189528;23;20035;-88
2022/09/12 05:43:37;;;;;;;12.98;7.07;;;13.80;99.90;;;;;;6163052;23;20025;-96
2022/09/12 05:46:19;;;;;;;10.43;6.07;;;13.90;99.90;;;;;;6164709;23;20020;-95
2022/09/12 05:48:47;;;;;;;14.80;7.80;;;13.90;99.90;;;;;;6189812;23;20020;-94
2022/09/12 05:51:19;;;;;;;12.85;7.43;;;14.00;99.90;;;;;;6164530;23;20020;-95
2022/09/12 05:53:51;;;;;;;14.18;7.82;;;14.00;99.90;;;;;;6189147;22;20009;-96
2022/09/12 05:56:19;;;;;;;15.07;8.27;;;14.10;99.90;;;;;;6163629;23;20027;-92
2022/09/12 05:58:47;;;;;;;15.60;8.85;;;14.10;99.90;;;;;;6164104;23;20017;-89
2022/09/12 06:01:18;;;;;;;16.40;9.15;;;14.20;99.90;;;;;;6191047;23;20349;-94
2022/09/12 06:03:50;;;;;;;14.20;7.50;;;14.20;99.90;;;;;;6167221;23;20020;-89
2022/09/12 06:06:18;;;;;;;14.85;8.13;;;14.30;99.90;;;;;;6166736;23;20197;-94
2022/09/12 06:08:46;;;;;;;14.85;8.07;;;14.30;99.90;;;;;;6187916;23;20013;-96
2022/09/12 06:11:15;;;;;;;13.82;7.15;;;14.30;99.90;;;;;;6167076;23;20072;-94
2022/09/12 06:13:42;;;;;;;17.27;8.02;;;14.40;99.90;;;;;;6169814;23;20021;-88
2022/09/12 06:16:12;;;;;;;14.30;7.57;;;14.40;99.90;;;;;;6195909;23;20017;-94
2022/09/12 06:18:39;;;;;;;14.50;7.68;;;14.40;99.90;;;;;;6170608;23;20024;-94
2022/09/12 06:21:10;;;;;;;16.17;8.65;;;14.40;99.90;;;;;;6191317;23;20020;-96
2022/09/12 06:23:36;;;;;;;14.45;7.82;;;14.50;99.90;;;;;;6190408;23;20020;-96
2022/09/12 06:26:04;;;;;;;14.95;8.25;;;14.50;99.90;;;;;;6139706;23;20089;-95
2022/09/12 06:28:32;;;;;;;15.35;8.23;;;14.60;99.90;;;;;;6164784;23;20581;-89
2022/09/12 06:31:11;;;;;;;17.13;8.48;;;14.60;99.90;;;;;;6162958;23;20013;-88
2022/09/12 06:33:40;;;;;;;15.73;8.05;;;14.60;99.90;;;;;;6162214;23;20055;-96
2022/09/12 06:36:12;;;;;;;15.32;8.90;;;14.70;99.90;;;;;;6161745;23;20078;-92
2022/09/12 06:38:39;;;;;;;16.33;9.35;;;14.70;99.90;;;;;;6161995;23;20069;-96
2022/09/12 06:41:05;;;;;;;;;;;14.70;99.90;;;;;;6162707;23;20016;-96
2022/09/12 06:43:32;;;;;;;16.77;8.68;;;14.70;99.90;;;;;;6165637;22;19986;-95
2022/09/12 06:45:58;;;;;;;17.88;8.60;;;14.80;99.90;;;;;;6161025;23;20020;-93
2022/09/12 06:48:25;;;;;;;17.17;8.77;;;14.80;99.90;;;;;;6161207;23;20023;-92
2022/09/12 06:50:58;;;;;;;;;;;14.80;99.90;;;;;;6186996;23;20017;-95
2022/09/12 06:53:25;;;;;;;16.70;8.10;;;14.90;99.90;;;;;;6161997;23;19922;-96
2022/09/12 06:56:02;;;;;;;16.67;9.00;;;14.90;99.90;;;;;;6161515;23;20453;-94
2022/09/12 06:58:28;;;;;;;15.23;8.48;;;14.90;99.90;;;;;;6161080;23;20016;-96
2022/09/12 07:01:04;;;;;;;;;;;14.90;99.90;;;;;;6187108;22;20349;-92
2022/09/12 07:03:31;;;;;;;18.35;9.15;;;14.90;99.90;;;;;;6161767;23;19916;-95
2022/09/12 07:06:02;;;;;;;18.65;9.60;;;14.90;99.90;;;;;;6267242;22;20017;-91
2022/09/12 07:08:30;;;;;;;16.90;8.65;;;14.90;99.90;;;;;;6186889;23;20063;-91
2022/09/12 07:10:57;;;;;;;18.73;9.10;;;15.00;99.90;;;;;;6187088;23;20053;-90
2022/09/12 07:13:24;;;;;;;18.30;9.05;;;15.00;99.90;;;;;;6137910;23;20020;-96
2022/09/12 07:15:50;;;;;;;;;;;15.00;99.90;;;;;;6162258;23;20017;-94
2022/09/12 07:18:16;;;;;;;19.35;9.90;;;15.10;99.90;;;;;;6161843;22;20002;-96
2022/09/12 07:20:42;;;;;;;19.00;9.95;;;15.10;99.90;;;;;;6161620;23;20454;-93
2022/09/12 07:23:08;;;;;;;20.38;10.05;;;15.10;99.90;;;;;;6162263;23;20438;-93
2022/09/12 07:25:34;;;;;;;19.65;9.73;;;15.10;99.90;;;;;;6186890;23;20020;-96
2022/09/12 07:27:59;;;;;;;20.10;11.10;;;15.20;99.90;;;;;;6162051;23;20048;-96
2022/09/12 07:30:25;;;;;;;22.13;10.18;;;15.20;99.90;;;;;;6186438;23;20089;-96
2022/09/12 07:32:52;;;;;;;22.15;10.48;;;15.30;99.90;;;;;;6137901;23;20040;-95
2022/09/12 07:35:19;;;;;;;23.08;10.30;;;15.30;99.90;;;;;;6186665;23;20027;-96
2022/09/12 07:37:45;;;;;;;20.67;10.02;;;15.30;99.90;;;;;;6161789;23;20018;-94
2022/09/12 07:40:10;;;;;;;20.08;10.63;;;15.40;99.90;;;;;;6161812;23;20338;-91
2022/09/12 07:42:36;;;;;;;21.58;10.50;;;15.40;99.90;;;;;;6211916;23;20069;-96
2022/09/12 07:45:02;;;;;;;22.07;10.67;;;15.50;99.90;;;;;;6161928;23;20069;-95
2022/09/12 07:47:28;;;;;;;24.55;11.82;;;15.50;99.90;;;;;;6186698;23;20290;-96
2022/09/12 07:49:54;;;;;;;19.23;10.00;;;15.60;99.90;;;;;;6137215;23;20013;-93
2022/09/12 07:52:19;;;;;;;21.50;10.88;;;15.60;99.90;;;;;;6137053;23;20025;-94
2022/09/12 07:54:45;;;;;;;22.13;10.05;;;15.70;99.90;;;;;;6137540;23;20015;-94
2022/09/12 07:57:11;;;;;;;22.30;10.30;;;15.70;99.90;;;;;;6186445;22;20346;-92
2022/09/12 07:59:41;;;;;;;22.15;11.02;;;15.70;99.90;;;;;;6186260;23;20024;-95
2022/09/12 08:02:12;;;;;;;22.48;10.52;;;15.70;99.90;;;;;;6186406;22;20017;-89
2022/09/12 08:04:39;;;;;;;24.35;11.35;;;15.80;99.90;;;;;;6161494;23;20024;-96
2022/09/12 08:07:05;;;;;;;27.23;12.70;;;15.80;99.90;;;;;;6161786;23;20017;-95
2022/09/12 08:09:31;;;;;;;22.77;10.80;;;15.80;99.90;;;;;;6161758;23;20021;-95
2022/09/12 08:11:57;;;;;;;23.60;10.27;;;15.90;99.90;;;;;;6186671;23;20019;-94
2022/09/12 08:14:23;;;;;;;24.73;11.65;;;15.90;99.90;;;;;;6161650;23;20025;-95
2022/09/12 08:16:49;;;;;;;22.20;10.68;;;15.90;99.90;;;;;;6136784;23;20069;-95
2022/09/12 08:19:15;;;;;;;23.05;10.77;;;15.90;99.90;;;;;;6137197;23;20027;-89
2022/09/12 08:21:40;;;;;;;22.60;10.48;;;16.00;99.90;;;;;;6161508;23;20021;-94
2022/09/12 08:24:06;;;;;;;25.10;11.68;;;16.00;99.90;;;;;;6211442;23;20021;-96
2022/09/12 08:26:33;;;;;;;24.65;11.98;;;16.10;99.90;;;;;;6161553;23;20434;-96
2022/09/12 08:28:59;;;;;;;24.33;12.02;;;16.10;99.90;;;;;;6137300;23;20024;-95
2022/09/12 08:31:26;;;;;;;24.38;11.48;;;16.10;99.90;;;;;;6186002;23;20013;-91
2022/09/12 08:33:55;;;;;;;21.27;11.15;;;16.10;99.90;;;;;;6161286;23;20016;-91
2022/09/12 08:36:23;;;;;;;21.40;10.30;;;16.20;99.90;;;;;;6161082;23;20028;-94
2022/09/12 08:38:54;;;;;;;21.27;10.00;;;16.20;99.90;;;;;;6185972;23;20024;-94
2022/09/12 08:41:33;;;;;;;21.52;10.50;;;16.20;99.90;;;;;;6161770;23;20016;-93
2022/09/12 08:44:23;;;;;;;22.08;10.23;;;16.30;99.90;;;;;;6161265;23;20020;-91
2022/09/12 08:46:56;;;;;;;20.08;9.80;;;16.30;99.90;;;;;;6186279;22;20350;-95
2022/09/12 08:49:36;;;;;;;23.05;10.27;;;16.40;99.90;;;;;;6161529;23;20013;-96
2022/09/12 08:52:12;;;;;;;20.98;9.82;;;16.40;99.90;;;;;;6161996;23;20454;-93
2022/09/12 08:54:39;;;;;;;20.67;10.17;;;16.50;99.90;;;;;;6161371;23;20078;-94
2022/09/12 08:57:08;;;;;;;20.83;9.50;;;16.60;99.90;;;;;;6210974;23;20016;-95
2022/09/12 08:59:43;;;;;;;20.20;8.60;;;16.60;99.90;;;;;;6186244;23;20092;-89
2022/09/12 09:02:23;;;;;;;23.33;10.52;;;16.70;99.90;;;;;;6161641;23;20021;-94
2022/09/12 09:05:11;;;;;;;20.92;9.40;;;16.70;99.90;;;;;;6161447;23;20019;-96
2022/09/12 09:07:51;;;;;;;20.17;9.27;;;16.80;99.90;;;;;;6161635;23;20025;-92
2022/09/12 09:10:31;;;;;;;21.75;10.68;;;16.80;99.90;;;;;;6186049;23;20016;-96
2022/09/12 09:14:46;;;;;;;18.98;9.43;;;16.90;99.90;;;;;;6186082;23;20023;-95
2022/09/12 09:16:19;;;;;;;18.90;7.85;;;16.90;99.90;;;;;;6186111;23;20107;-94
2022/09/12 09:18:47;;;;;;;16.42;8.43;;;17.00;99.90;;;;;;6161329;23;20450;-94
2022/09/12 09:21:34;;;;;;;18.38;9.15;;;17.00;99.90;;;;;;6161243;23;20017;-88
2022/09/12 09:24:05;;;;;;;15.00;8.10;;;17.10;99.90;;;;;;6161448;23;20056;-89
2022/09/12 09:26:43;;;;;;;20.02;8.77;;;17.20;99.90;;;;;;6161293;23;20016;-92
2022/09/12 09:29:35;;;;;;;20.13;8.93;;;17.20;99.90;;;;;;6161513;23;20021;-96
2022/09/12 09:32:09;;;;;;;16.88;8.18;;;17.20;99.90;;;;;;6170119;22;20017;-91
2022/09/12 09:34:38;;;;;;;20.88;9.32;;;17.30;99.90;;;;;;6137300;23;20050;-93
2022/09/12 09:37:41;;;;;;;17.33;8.82;;;17.30;99.90;;;;;;6185833;23;20046;-90
2022/09/12 09:40:23;;;;;;;17.33;9.05;;;17.40;99.90;;;;;;6161271;23;20027;-93
2022/09/12 09:43:01;;;;;;;18.40;9.52;;;17.40;99.90;;;;;;6161225;23;20016;-95
2022/09/12 09:45:28;;;;;;;19.27;8.98;;;17.50;99.90;;;;;;6161428;23;20445;-94
2022/09/12 09:48:19;;;;;;;21.58;8.88;;;17.50;99.90;;;;;;6136916;23;20017;-93
2022/09/12 09:50:47;;;;;;;20.33;9.13;;;17.60;99.90;;;;;;6161238;23;20503;-94
2022/09/12 09:53:41;;;;;;;18.58;9.18;;;17.70;99.90;;;;;;6161295;23;20062;-92
2022/09/12 09:56:31;;;;;;;22.80;9.38;;;17.70;99.90;;;;;;6161546;23;20046;-95
2022/09/12 09:59:07;;;;;;;20.52;9.55;;;17.90;99.90;;;;;;6161258;23;20017;-90
2022/09/12 10:01:33;;;;;;;18.90;9.32;;;18.00;99.90;;;;;;6186271;23;20066;-93
2022/09/12 10:03:59;;;;;;;20.15;9.65;;;18.00;99.90;;;;;;6136922;23;20046;-95
2022/09/12 10:06:33;;;;;;;21.20;10.30;;;18.10;99.90;;;;;;6186209;23;20027;-92
2022/09/12 10:09:23;;;;;;;18.65;8.63;;;18.20;99.90;;;;;;6186085;23;20024;-96
2022/09/12 10:11:51;;;;;;;18.33;9.20;;;18.20;99.90;;;;;;6161295;23;20020;-92
2022/09/12 10:14:30;;;;;;;18.60;8.57;;;18.30;99.90;;;;;;6161214;23;20013;-95
2022/09/12 10:16:57;;;;;;;20.13;9.57;;;18.30;99.90;;;;;;6161004;23;20017;-96
2022/09/12 10:19:34;;;;;;;22.42;8.73;;;18.40;99.90;;;;;;6186106;23;20465;-93
2022/09/12 10:22:02;;;;;;;19.92;8.68;;;18.50;99.90;;;;;;6161187;23;20314;-90
2022/09/12 10:24:40;;;;;;;18.83;8.88;;;18.60;99.90;;;;;;6185952;23;20021;-96
2022/09/12 10:27:12;;;;;;;19.55;8.80;;;18.70;99.90;;;;;;6159840;23;20394;-96
2022/09/12 10:29:47;;;;;;;21.00;9.60;;;18.90;99.90;;;;;;6161278;23;20020;-93
2022/09/12 10:32:29;;;;;;;19.83;8.82;;;19.00;99.90;;;;;;6161339;23;20017;-93
2022/09/12 10:35:02;;;;;;;19.75;9.30;;;19.10;99.90;;;;;;6160802;23;20458;-94
2022/09/12 10:37:32;;;;;;;21.15;9.80;;;19.10;99.90;;;;;;6159500;23;20016;-94
2022/09/12 10:39:59;;;;;;;21.88;9.52;;;19.20;99.90;;;;;;6160449;23;20051;-94
2022/09/12 10:42:51;;;;;;;21.65;9.43;;;19.20;99.90;;;;;;6161614;23;20050;-94
2022/09/12 10:45:23;;;;;;;15.63;7.53;;;19.40;99.90;;;;;;6161201;23;20092;-96
2022/09/12 10:47:50;;;;;;;17.98;9.05;;;19.50;99.90;;;;;;6185821;23;20027;-90
2022/09/12 10:50:27;;;;;;;16.45;7.43;;;19.60;99.90;;;;;;6185840;23;20100;-96
2022/09/12 10:52:54;;;;;;;15.70;7.43;;;19.80;99.90;;;;;;6161304;23;20020;-94
2022/09/12 10:55:31;;;;;;;15.45;7.22;;;20.00;99.90;;;;;;6161146;23;20017;-92
2022/09/12 10:58:11;;;;;;;;;;;20.10;99.90;;;;;;6161458;23;20067;-93
2022/09/12 11:01:00;;;;;;;17.02;7.55;;;20.20;99.90;;;;;;6161854;22;19916;-93
2022/09/12 11:03:54;;;;;;;16.27;6.97;;;20.30;99.90;;;;;;6160541;23;20044;-96
2022/09/12 11:06:32;;;;;;;14.27;7.55;;;20.40;99.90;;;;;;6160937;23;20016;-93
2022/09/12 11:09:22;;;;;;;13.60;7.25;;;20.50;99.90;;;;;;6160966;23;20017;-88
2022/09/12 11:12:28;;;;;;;14.43;6.40;;;20.70;99.90;;;;;;6161214;23;20046;-96
2022/09/12 11:15:09;;;;;;;15.93;7.10;;;20.80;99.90;;;;;;6161689;23;20066;-92
2022/09/12 11:17:56;;;;;;;13.18;6.88;;;20.90;99.90;;;;;;6161736;23;20017;-93
2022/09/12 11:20:40;;;;;;;16.63;6.65;;;21.00;99.90;;;;;;6161880;23;20017;-96
2022/09/12 11:23:27;;;;;;;14.05;6.90;;;21.10;99.90;;;;;;6161518;23;20027;-90
2022/09/12 11:26:23;;;;;;;12.35;5.15;;;21.20;99.90;;;;;;6163544;23;20016;-96
2022/09/12 11:29:22;;;;;;;11.55;5.25;;;21.30;99.90;;;;;;6183095;23;20341;-89
2022/09/12 11:32:29;;;;;;;11.80;4.70;;;21.40;99.90;;;;;;6165044;23;20020;-90
2022/09/12 11:35:01;;;;;;;12.23;6.20;;;21.60;99.90;;;;;;6249978;23;20012;-90
2022/09/12 11:37:35;;;;;;;15.73;6.03;;;21.70;99.90;;;;;;6195804;23;20016;-93
2022/09/12 11:40:19;;;;;;;11.40;5.18;;;21.70;99.90;;;;;;6169295;23;20025;-90
2022/09/12 11:42:46;;;;;;;16.13;6.07;;;21.90;99.90;;;;;;6165926;23;20016;-93
2022/09/12 11:45:18;;;;;;;14.63;6.75;;;21.90;99.90;;;;;;6167365;23;20021;-90
2022/09/12 11:47:49;;;;;;;13.43;6.45;;;22.00;99.90;;;;;;6167102;23;20028;-92
2022/09/12 11:50:27;;;;;;;12.52;5.78;;;22.10;99.90;;;;;;6170311;23;20017;-95
2022/09/12 11:52:57;;;;;;;14.02;5.72;;;22.10;99.90;;;;;;6171155;23;20091;-91
2022/09/12 11:55:28;;;;;;;12.55;6.20;;;22.20;99.90;;;;;;6170104;23;20021;-93
2022/09/12 11:57:57;;;;;;;12.93;6.50;;;22.30;99.90;;;;;;6172419;23;20044;-90
2022/09/12 12:00:54;;;;;;;12.32;5.68;;;22.40;99.90;;;;;;6144545;23;20047;-89
2022/09/12 12:03:41;;;;;;;10.93;4.97;;;22.40;99.90;;;;;;6196875;23;20090;-94
2022/09/12 12:06:32;;;;;;;10.50;5.50;;;22.40;99.90;;;;;;6149387;23;20104;-89
2022/09/12 12:08:58;;;;;;;10.70;5.28;;;22.40;99.90;;;;;;6175344;23;20024;-96
2022/09/12 12:11:32;;;;;;;;;;;22.40;99.90;;;;;;6175512;23;20013;-88
2022/09/12 12:14:22;;;;;;;10.60;4.72;;;22.30;99.90;;;;;;6227900;22;19912;-90
2022/09/12 12:16:49;;;;;;;10.10;4.63;;;22.30;99.90;;;;;;6176515;23;20017;-89
2022/09/12 12:19:27;;;;;;;8.27;3.90;;;22.30;99.90;;;;;;6176865;23;20021;-95
2022/09/12 12:21:53;;;;;;;8.40;3.47;;;22.30;99.90;;;;;;6171497;23;20013;-92
2022/09/12 12:24:22;;;;;;;8.40;3.97;;;22.20;99.90;;;;;;6175725;23;20021;-90
2022/09/12 12:26:56;;;;;;;8.27;3.50;;;22.20;99.90;;;;;;6152577;23;20047;-92
2022/09/12 12:29:22;;;;;;;10.02;4.22;;;22.20;99.90;;;;;;6192585;23;20050;-94
2022/09/12 12:32:02;;;;;;;10.77;4.60;;;22.20;99.90;;;;;;6168243;23;20096;-90
2022/09/12 12:34:30;;;;;;;6.60;3.25;;;22.30;99.90;;;;;;6169715;23;20021;-92
2022/09/12 12:36:57;;;;;;;8.30;3.95;;;22.40;99.90;;;;;;6174519;22;20085;-90
2022/09/12 12:39:32;;;;;;;9.52;4.15;;;22.50;99.90;;;;;;6171801;23;20020;-92
2022/09/12 12:42:01;;;;;;;6.72;3.38;;;22.50;99.90;;;;;;6200218;23;20154;-94
2022/09/12 12:44:43;;;;;;;8.63;4.13;;;22.50;99.90;;;;;;6193639;22;20103;-94
2022/09/12 12:47:24;;;;;;;6.50;3.47;;;22.40;99.90;;;;;;6170510;23;20017;-93
2022/09/12 12:50:12;;;;;;;7.22;3.72;;;22.40;99.90;;;;;;6171095;23;20346;-96
2022/09/12 12:53:19;;;;;;;6.95;3.25;;;22.40;99.90;;;;;;6175090;23;20017;-88
2022/09/12 12:55:50;;;;;;;7.53;3.60;;;22.50;99.90;;;;;;6199584;22;20052;-96
2022/09/12 12:58:58;;;;;;;8.02;3.90;;;22.50;99.90;;;;;;6180737;23;20318;-89
2022/09/12 13:01:24;;;;;;;5.25;2.47;;;22.50;99.90;;;;;;6196851;22;20024;-89
2022/09/12 13:04:18;;;;;;;4.68;2.33;;;22.40;99.90;;;;;;6167271;23;20050;-87
2022/09/12 13:06:53;;;;;;;5.38;2.67;;;22.30;99.90;;;;;;6172802;23;20017;-90
2022/09/12 13:09:32;;;;;;;6.10;2.80;;;22.30;99.90;;;;;;6177094;22;20040;-95
2022/09/12 13:12:03;;;;;;;6.18;3.08;;;22.30;99.90;;;;;;6172040;23;20025;-95
2022/09/12 13:14:52;;;;;;;7.10;3.53;;;22.30;99.90;;;;;;6196563;23;20044;-88
2022/09/12 13:17:29;;;;;;;7.40;3.28;;;22.30;99.90;;;;;;6201285;23;20019;-96
2022/09/12 13:20:27;;;;;;;6.03;2.60;;;22.40;99.90;;;;;;6175043;23;20059;-96
2022/09/12 13:22:53;;;;;;;;;;;22.40;99.90;;;;;;6196888;23;20017;-87
2022/09/12 13:25:20;;;;;;;5.60;2.13;;;22.40;99.90;;;;;;6177639;22;19916;-89